sensor_id;sensor_type;location;lat;lon;timestamp;temperature;humidity
3699;DHT22;1865;50.918;7.092;2023-02-28T00:00:29;5.20;41.50
3699;DHT22;1865;50.918;7.092;2023-02-28T00:02:55;5.20;41.50
3699;DHT22;1865;50.918;7.092;2023-02-28T00:05:22;5.20;41.70
3699;DHT22;1865;50.918;7.092;2023-02-28T00:07:49;5.20;41.90
3699;DHT22;1865;50.918;7.092;2023-02-28T00:10:18;5.40;41.40
3699;DHT22;1865;50.918;7.092;2023-02-28T00:12:47;5.20;41.30
3699;DHT22;1865;50.918;7.092;2023-02-28T00:15:13;5.10;41.30
3699;DHT22;1865;50.918;7.092;2023-02-28T00:17:38;5.10;41.30
3699;DHT22;1865;50.918;7.092;2023-02-28T00:20:06;5.10;41.40
3699;DHT22;1865;50.918;7.092;2023-02-28T00:22:36;5.10;40.90
3699;DHT22;1865;50.918;7.092;2023-02-28T00:25:03;5.40;41.40
3699;DHT22;1865;50.918;7.092;2023-02-28T00:27:29;5.10;41.10
3699;DHT22;1865;50.918;7.092;2023-02-28T00:29:55;5.10;40.80
3699;DHT22;1865;50.918;7.092;2023-02-28T00:32:20;5.20;40.60
3699;DHT22;1865;50.918;7.092;2023-02-28T00:34:46;5.20;39.80
3699;DHT22;1865;50.918;7.092;2023-02-28T00:37:12;5.20;39.90
3699;DHT22;1865;50.918;7.092;2023-02-28T00:39:38;5.20;39.80
3699;DHT22;1865;50.918;7.092;2023-02-28T00:42:05;5.20;39.80
3699;DHT22;1865;50.918;7.092;2023-02-28T00:44:31;5.20;39.70
3699;DHT22;1865;50.918;7.092;2023-02-28T00:46:57;5.30;39.80
3699;DHT22;1865;50.918;7.092;2023-02-28T00:49:24;5.40;39.30
3699;DHT22;1865;50.918;7.092;2023-02-28T00:51:50;5.30;39.00
3699;DHT22;1865;50.918;7.092;2023-02-28T00:54:16;5.30;40.00
3699;DHT22;1865;50.918;7.092;2023-02-28T00:56:42;5.30;39.20
3699;DHT22;1865;50.918;7.092;2023-02-28T00:59:08;5.30;39.00
3699;DHT22;1865;50.918;7.092;2023-02-28T01:01:33;5.40;38.80
3699;DHT22;1865;50.918;7.092;2023-02-28T01:03:59;5.40;39.00
3699;DHT22;1865;50.918;7.092;2023-02-28T01:06:25;5.50;38.90
3699;DHT22;1865;50.918;7.092;2023-02-28T01:08:50;5.70;38.50
3699;DHT22;1865;50.918;7.092;2023-02-28T01:11:17;5.40;38.60
3699;DHT22;1865;50.918;7.092;2023-02-28T01:13:44;5.60;38.80
3699;DHT22;1865;50.918;7.092;2023-02-28T01:16:10;5.40;38.70
3699;DHT22;1865;50.918;7.092;2023-02-28T01:18:36;5.40;39.10
3699;DHT22;1865;50.918;7.092;2023-02-28T01:21:10;5.50;38.60
3699;DHT22;1865;50.918;7.092;2023-02-28T01:23:36;5.50;38.40
3699;DHT22;1865;50.918;7.092;2023-02-28T01:26:10;5.40;38.50
3699;DHT22;1865;50.918;7.092;2023-02-28T01:28:37;5.30;38.40
3699;DHT22;1865;50.918;7.092;2023-02-28T01:31:02;5.20;38.60
3699;DHT22;1865;50.918;7.092;2023-02-28T01:33:28;5.20;39.00
3699;DHT22;1865;50.918;7.092;2023-02-28T01:38:29;5.20;39.20
3699;DHT22;1865;50.918;7.092;2023-02-28T01:40:55;5.20;39.50
3699;DHT22;1865;50.918;7.092;2023-02-28T01:43:26;5.30;38.90
3699;DHT22;1865;50.918;7.092;2023-02-28T01:45:54;5.30;39.10
3699;DHT22;1865;50.918;7.092;2023-02-28T01:48:28;5.30;38.80
3699;DHT22;1865;50.918;7.092;2023-02-28T01:50:59;5.30;39.10
3699;DHT22;1865;50.918;7.092;2023-02-28T01:53:36;5.40;39.10
3699;DHT22;1865;50.918;7.092;2023-02-28T01:56:04;5.50;38.70
3699;DHT22;1865;50.918;7.092;2023-02-28T01:58:32;5.30;38.70
3699;DHT22;1865;50.918;7.092;2023-02-28T02:00:57;5.20;39.50
3699;DHT22;1865;50.918;7.092;2023-02-28T02:03:23;5.20;39.20
3699;DHT22;1865;50.918;7.092;2023-02-28T02:05:49;5.30;39.20
3699;DHT22;1865;50.918;7.092;2023-02-28T02:08:21;5.20;39.10
3699;DHT22;1865;50.918;7.092;2023-02-28T02:10:51;5.20;39.40
3699;DHT22;1865;50.918;7.092;2023-02-28T02:16:17;5.00;39.80
3699;DHT22;1865;50.918;7.092;2023-02-28T02:18:52;5.00;40.00
3699;DHT22;1865;50.918;7.092;2023-02-28T02:21:37;4.90;40.40
3699;DHT22;1865;50.918;7.092;2023-02-28T02:32:53;4.70;40.90
3699;DHT22;1865;50.918;7.092;2023-02-28T02:38:47;4.60;41.40
3699;DHT22;1865;50.918;7.092;2023-02-28T02:46:30;4.40;41.90
3699;DHT22;1865;50.918;7.092;2023-02-28T02:49:00;4.40;41.80
3699;DHT22;1865;50.918;7.092;2023-02-28T02:51:27;4.40;41.60
3699;DHT22;1865;50.918;7.092;2023-02-28T02:54:19;4.40;41.70
3699;DHT22;1865;50.918;7.092;2023-02-28T02:56:47;4.40;41.00
3699;DHT22;1865;50.918;7.092;2023-02-28T02:59:17;4.40;41.10
3699;DHT22;1865;50.918;7.092;2023-02-28T03:01:50;4.50;41.20
3699;DHT22;1865;50.918;7.092;2023-02-28T03:04:20;4.50;40.60
3699;DHT22;1865;50.918;7.092;2023-02-28T03:06:47;4.50;40.50
3699;DHT22;1865;50.918;7.092;2023-02-28T03:09:13;4.50;40.50
3699;DHT22;1865;50.918;7.092;2023-02-28T03:11:39;4.50;40.40
3699;DHT22;1865;50.918;7.092;2023-02-28T03:19:54;4.70;39.00
3699;DHT22;1865;50.918;7.092;2023-02-28T03:22:27;4.60;38.90
3699;DHT22;1865;50.918;7.092;2023-02-28T03:25:08;4.60;39.10
3699;DHT22;1865;50.918;7.092;2023-02-28T03:27:54;4.60;38.90
3699;DHT22;1865;50.918;7.092;2023-02-28T03:30:48;4.60;39.00
3699;DHT22;1865;50.918;7.092;2023-02-28T03:33:33;4.60;38.60
3699;DHT22;1865;50.918;7.092;2023-02-28T03:36:04;4.60;39.20
3699;DHT22;1865;50.918;7.092;2023-02-28T03:38:45;4.60;38.40
3699;DHT22;1865;50.918;7.092;2023-02-28T03:41:16;4.60;38.00
3699;DHT22;1865;50.918;7.092;2023-02-28T03:43:48;4.70;37.60
3699;DHT22;1865;50.918;7.092;2023-02-28T03:46:18;4.60;36.40
3699;DHT22;1865;50.918;7.092;2023-02-28T03:48:57;4.70;37.20
3699;DHT22;1865;50.918;7.092;2023-02-28T03:51:27;4.70;36.90
3699;DHT22;1865;50.918;7.092;2023-02-28T03:53:58;4.70;36.20
3699;DHT22;1865;50.918;7.092;2023-02-28T03:59:13;4.70;36.40
3699;DHT22;1865;50.918;7.092;2023-02-28T04:01:45;4.60;36.50
3699;DHT22;1865;50.918;7.092;2023-02-28T04:04:12;4.70;36.30
3699;DHT22;1865;50.918;7.092;2023-02-28T04:06:38;4.70;35.80
3699;DHT22;1865;50.918;7.092;2023-02-28T04:09:06;4.70;35.50
3699;DHT22;1865;50.918;7.092;2023-02-28T04:11:44;4.70;35.50
3699;DHT22;1865;50.918;7.092;2023-02-28T04:14:11;4.70;35.30
3699;DHT22;1865;50.918;7.092;2023-02-28T04:16:39;4.60;35.40
3699;DHT22;1865;50.918;7.092;2023-02-28T04:19:07;4.70;35.10
3699;DHT22;1865;50.918;7.092;2023-02-28T04:21:40;4.70;35.20
3699;DHT22;1865;50.918;7.092;2023-02-28T04:24:10;4.50;34.50
3699;DHT22;1865;50.918;7.092;2023-02-28T04:26:40;4.60;34.70
3699;DHT22;1865;50.918;7.092;2023-02-28T04:29:07;4.60;35.20
3699;DHT22;1865;50.918;7.092;2023-02-28T04:31:33;4.60;34.90
3699;DHT22;1865;50.918;7.092;2023-02-28T04:33:59;4.60;34.40
3699;DHT22;1865;50.918;7.092;2023-02-28T04:36:25;4.50;35.00
3699;DHT22;1865;50.918;7.092;2023-02-28T04:38:51;4.50;34.80
3699;DHT22;1865;50.918;7.092;2023-02-28T04:41:16;4.60;34.50
3699;DHT22;1865;50.918;7.092;2023-02-28T04:43:42;4.70;34.70
3699;DHT22;1865;50.918;7.092;2023-02-28T04:46:08;4.80;34.50
3699;DHT22;1865;50.918;7.092;2023-02-28T04:48:36;4.60;34.20
3699;DHT22;1865;50.918;7.092;2023-02-28T04:51:03;4.60;34.40
3699;DHT22;1865;50.918;7.092;2023-02-28T04:53:30;4.60;34.40
3699;DHT22;1865;50.918;7.092;2023-02-28T04:55:58;4.60;35.00
3699;DHT22;1865;50.918;7.092;2023-02-28T04:58:25;4.50;35.00
3699;DHT22;1865;50.918;7.092;2023-02-28T05:00:51;4.50;34.90
3699;DHT22;1865;50.918;7.092;2023-02-28T05:03:17;4.50;35.00
3699;DHT22;1865;50.918;7.092;2023-02-28T05:05:42;4.60;34.60
3699;DHT22;1865;50.918;7.092;2023-02-28T05:08:08;4.50;34.80
3699;DHT22;1865;50.918;7.092;2023-02-28T05:10:35;4.40;34.70
3699;DHT22;1865;50.918;7.092;2023-02-28T05:13:01;4.50;34.60
3699;DHT22;1865;50.918;7.092;2023-02-28T05:15:26;4.40;34.90
3699;DHT22;1865;50.918;7.092;2023-02-28T05:17:52;4.30;35.10
3699;DHT22;1865;50.918;7.092;2023-02-28T05:20:17;4.40;35.70
3699;DHT22;1865;50.918;7.092;2023-02-28T05:22:43;4.20;35.10
3699;DHT22;1865;50.918;7.092;2023-02-28T05:25:19;4.30;35.80
3699;DHT22;1865;50.918;7.092;2023-02-28T05:27:46;4.40;35.80
3699;DHT22;1865;50.918;7.092;2023-02-28T05:30:12;4.50;35.60
3699;DHT22;1865;50.918;7.092;2023-02-28T05:32:39;4.50;35.40
3699;DHT22;1865;50.918;7.092;2023-02-28T05:35:09;4.60;35.30
3699;DHT22;1865;50.918;7.092;2023-02-28T05:37:35;4.60;35.20
3699;DHT22;1865;50.918;7.092;2023-02-28T05:40:01;4.60;35.10
3699;DHT22;1865;50.918;7.092;2023-02-28T05:42:26;4.60;35.10
3699;DHT22;1865;50.918;7.092;2023-02-28T05:44:52;4.70;35.40
3699;DHT22;1865;50.918;7.092;2023-02-28T05:47:17;4.70;35.70
3699;DHT22;1865;50.918;7.092;2023-02-28T05:49:43;4.70;35.70
3699;DHT22;1865;50.918;7.092;2023-02-28T05:52:08;4.70;36.00
3699;DHT22;1865;50.918;7.092;2023-02-28T05:54:34;4.60;36.00
3699;DHT22;1865;50.918;7.092;2023-02-28T05:57:00;4.60;35.90
3699;DHT22;1865;50.918;7.092;2023-02-28T05:59:25;4.60;35.80
3699;DHT22;1865;50.918;7.092;2023-02-28T06:01:51;4.60;36.20
3699;DHT22;1865;50.918;7.092;2023-02-28T06:04:20;4.60;36.00
3699;DHT22;1865;50.918;7.092;2023-02-28T06:06:47;4.60;36.10
3699;DHT22;1865;50.918;7.092;2023-02-28T06:09:12;4.60;36.60
3699;DHT22;1865;50.918;7.092;2023-02-28T06:11:38;4.60;36.00
3699;DHT22;1865;50.918;7.092;2023-02-28T06:14:04;4.60;36.00
3699;DHT22;1865;50.918;7.092;2023-02-28T06:16:32;4.60;35.70
3699;DHT22;1865;50.918;7.092;2023-02-28T06:19:00;4.60;35.80
3699;DHT22;1865;50.918;7.092;2023-02-28T06:21:26;4.60;35.50
3699;DHT22;1865;50.918;7.092;2023-02-28T06:23:52;4.70;35.50
3699;DHT22;1865;50.918;7.092;2023-02-28T06:26:18;4.60;35.50
3699;DHT22;1865;50.918;7.092;2023-02-28T06:28:44;4.60;36.00
3699;DHT22;1865;50.918;7.092;2023-02-28T06:31:11;4.60;36.00
3699;DHT22;1865;50.918;7.092;2023-02-28T06:33:38;4.60;36.10
3699;DHT22;1865;50.918;7.092;2023-02-28T06:36:05;4.60;35.80
3699;DHT22;1865;50.918;7.092;2023-02-28T06:38:31;4.40;36.00
3699;DHT22;1865;50.918;7.092;2023-02-28T06:40:59;4.50;36.20
3699;DHT22;1865;50.918;7.092;2023-02-28T06:43:27;4.40;36.60
3699;DHT22;1865;50.918;7.092;2023-02-28T06:45:57;4.40;36.20
3699;DHT22;1865;50.918;7.092;2023-02-28T06:48:23;4.50;35.90
3699;DHT22;1865;50.918;7.092;2023-02-28T06:50:49;4.50;35.90
3699;DHT22;1865;50.918;7.092;2023-02-28T06:53:14;4.60;35.90
3699;DHT22;1865;50.918;7.092;2023-02-28T06:55:40;4.50;35.50
3699;DHT22;1865;50.918;7.092;2023-02-28T06:58:06;4.60;35.50
3699;DHT22;1865;50.918;7.092;2023-02-28T07:00:43;4.70;35.40
3699;DHT22;1865;50.918;7.092;2023-02-28T07:03:10;4.70;35.20
3699;DHT22;1865;50.918;7.092;2023-02-28T07:05:37;4.80;35.30
3699;DHT22;1865;50.918;7.092;2023-02-28T07:08:04;4.70;34.70
3699;DHT22;1865;50.918;7.092;2023-02-28T07:10:31;4.80;35.00
3699;DHT22;1865;50.918;7.092;2023-02-28T07:12:58;4.80;34.70
3699;DHT22;1865;50.918;7.092;2023-02-28T07:15:23;4.90;34.40
3699;DHT22;1865;50.918;7.092;2023-02-28T07:17:49;4.90;33.50
3699;DHT22;1865;50.918;7.092;2023-02-28T07:20:15;5.00;33.70
3699;DHT22;1865;50.918;7.092;2023-02-28T07:22:41;5.10;33.30
3699;DHT22;1865;50.918;7.092;2023-02-28T07:25:08;5.10;33.10
3699;DHT22;1865;50.918;7.092;2023-02-28T07:27:34;5.20;32.40
3699;DHT22;1865;50.918;7.092;2023-02-28T07:29:59;5.20;32.20
3699;DHT22;1865;50.918;7.092;2023-02-28T07:32:27;5.20;31.30
3699;DHT22;1865;50.918;7.092;2023-02-28T07:34:53;5.20;31.80
3699;DHT22;1865;50.918;7.092;2023-02-28T07:37:18;5.30;31.20
3699;DHT22;1865;50.918;7.092;2023-02-28T07:39:44;5.30;31.00
3699;DHT22;1865;50.918;7.092;2023-02-28T07:42:10;5.50;30.90
3699;DHT22;1865;50.918;7.092;2023-02-28T07:44:37;5.40;30.10
3699;DHT22;1865;50.918;7.092;2023-02-28T07:47:07;5.50;30.50
3699;DHT22;1865;50.918;7.092;2023-02-28T07:49:34;5.50;29.80
3699;DHT22;1865;50.918;7.092;2023-02-28T07:51:59;5.50;29.60
3699;DHT22;1865;50.918;7.092;2023-02-28T07:54:25;5.60;29.30
3699;DHT22;1865;50.918;7.092;2023-02-28T07:56:50;5.60;29.10
3699;DHT22;1865;50.918;7.092;2023-02-28T07:59:16;5.50;28.60
3699;DHT22;1865;50.918;7.092;2023-02-28T08:01:41;5.70;29.10
3699;DHT22;1865;50.918;7.092;2023-02-28T08:04:09;5.80;28.60
3699;DHT22;1865;50.918;7.092;2023-02-28T08:06:34;6.00;28.60
3699;DHT22;1865;50.918;7.092;2023-02-28T08:09:00;6.00;27.80
3699;DHT22;1865;50.918;7.092;2023-02-28T08:11:26;5.90;27.90
3699;DHT22;1865;50.918;7.092;2023-02-28T08:13:51;5.90;28.20
3699;DHT22;1865;50.918;7.092;2023-02-28T08:16:17;6.00;27.90
3699;DHT22;1865;50.918;7.092;2023-02-28T08:18:48;6.10;27.80
3699;DHT22;1865;50.918;7.092;2023-02-28T08:21:13;6.20;27.20
3699;DHT22;1865;50.918;7.092;2023-02-28T08:23:39;6.20;27.60
3699;DHT22;1865;50.918;7.092;2023-02-28T08:26:04;6.40;26.90
3699;DHT22;1865;50.918;7.092;2023-02-28T08:28:30;6.50;26.70
3699;DHT22;1865;50.918;7.092;2023-02-28T08:30:56;6.70;26.80
3699;DHT22;1865;50.918;7.092;2023-02-28T08:33:22;6.70;26.40
3699;DHT22;1865;50.918;7.092;2023-02-28T08:35:48;6.90;26.30
3699;DHT22;1865;50.918;7.092;2023-02-28T08:38:13;6.80;25.70
3699;DHT22;1865;50.918;7.092;2023-02-28T08:40:39;7.40;25.40
3699;DHT22;1865;50.918;7.092;2023-02-28T08:43:05;7.60;24.50
3699;DHT22;1865;50.918;7.092;2023-02-28T08:45:31;7.90;24.40
3699;DHT22;1865;50.918;7.092;2023-02-28T08:47:56;8.90;24.70
3699;DHT22;1865;50.918;7.092;2023-02-28T08:50:22;9.80;23.20
3699;DHT22;1865;50.918;7.092;2023-02-28T08:52:48;10.10;22.10
3699;DHT22;1865;50.918;7.092;2023-02-28T08:55:13;10.10;21.40
3699;DHT22;1865;50.918;7.092;2023-02-28T08:57:39;9.60;20.20
3699;DHT22;1865;50.918;7.092;2023-02-28T09:00:05;8.40;20.30
3699;DHT22;1865;50.918;7.092;2023-02-28T09:02:31;8.50;21.50
3699;DHT22;1865;50.918;7.092;2023-02-28T09:04:57;8.70;21.40
3699;DHT22;1865;50.918;7.092;2023-02-28T09:07:24;8.70;20.70
3699;DHT22;1865;50.918;7.092;2023-02-28T09:09:50;8.40;21.10
3699;DHT22;1865;50.918;7.092;2023-02-28T09:12:32;7.70;20.70
3699;DHT22;1865;50.918;7.092;2023-02-28T09:14:58;7.80;21.60
3699;DHT22;1865;50.918;7.092;2023-02-28T09:17:23;8.20;22.00
3699;DHT22;1865;50.918;7.092;2023-02-28T09:19:49;8.50;21.20
3699;DHT22;1865;50.918;7.092;2023-02-28T09:22:15;8.30;20.80
3699;DHT22;1865;50.918;7.092;2023-02-28T09:24:41;8.90;21.00
3699;DHT22;1865;50.918;7.092;2023-02-28T09:27:06;9.60;20.60
3699;DHT22;1865;50.918;7.092;2023-02-28T09:29:33;9.50;19.40
3699;DHT22;1865;50.918;7.092;2023-02-28T09:31:59;9.70;19.50
3699;DHT22;1865;50.918;7.092;2023-02-28T09:34:26;10.10;19.10
3699;DHT22;1865;50.918;7.092;2023-02-28T09:36:52;10.40;19.70
3699;DHT22;1865;50.918;7.092;2023-02-28T09:39:20;11.10;19.10
3699;DHT22;1865;50.918;7.092;2023-02-28T09:41:50;10.80;18.30
3699;DHT22;1865;50.918;7.092;2023-02-28T09:44:40;10.00;18.80
3699;DHT22;1865;50.918;7.092;2023-02-28T09:47:23;9.90;19.70
3699;DHT22;1865;50.918;7.092;2023-02-28T09:49:52;9.50;20.50
3699;DHT22;1865;50.918;7.092;2023-02-28T09:52:21;9.40;19.70
3699;DHT22;1865;50.918;7.092;2023-02-28T09:54:48;9.30;20.30
3699;DHT22;1865;50.918;7.092;2023-02-28T10:00:23;9.00;20.50
3699;DHT22;1865;50.918;7.092;2023-02-28T10:03:02;8.70;20.40
3699;DHT22;1865;50.918;7.092;2023-02-28T10:05:36;8.70;20.70
3699;DHT22;1865;50.918;7.092;2023-02-28T10:10:42;9.50;21.00
3699;DHT22;1865;50.918;7.092;2023-02-28T10:13:31;9.60;19.40
3699;DHT22;1865;50.918;7.092;2023-02-28T10:16:11;9.70;19.80
3699;DHT22;1865;50.918;7.092;2023-02-28T10:18:44;9.30;19.70
3699;DHT22;1865;50.918;7.092;2023-02-28T10:21:20;9.40;20.20
3699;DHT22;1865;50.918;7.092;2023-02-28T10:23:48;9.40;20.10
3699;DHT22;1865;50.918;7.092;2023-02-28T10:26:16;9.10;20.30
3699;DHT22;1865;50.918;7.092;2023-02-28T10:28:42;8.90;20.70
3699;DHT22;1865;50.918;7.092;2023-02-28T10:31:15;9.00;20.40
3699;DHT22;1865;50.918;7.092;2023-02-28T10:33:43;8.70;20.80
3699;DHT22;1865;50.918;7.092;2023-02-28T10:36:16;8.70;21.10
3699;DHT22;1865;50.918;7.092;2023-02-28T10:38:42;9.00;21.00
3699;DHT22;1865;50.918;7.092;2023-02-28T10:41:31;9.20;20.90
3699;DHT22;1865;50.918;7.092;2023-02-28T10:44:21;9.20;20.60
3699;DHT22;1865;50.918;7.092;2023-02-28T10:46:48;9.40;20.70
3699;DHT22;1865;50.918;7.092;2023-02-28T10:49:21;9.40;21.10
3699;DHT22;1865;50.918;7.092;2023-02-28T10:51:50;9.40;20.60
3699;DHT22;1865;50.918;7.092;2023-02-28T10:54:23;9.50;20.90
3699;DHT22;1865;50.918;7.092;2023-02-28T10:59:34;9.40;20.60
3699;DHT22;1865;50.918;7.092;2023-02-28T11:02:00;9.60;20.40
3699;DHT22;1865;50.918;7.092;2023-02-28T11:07:20;10.10;20.00
3699;DHT22;1865;50.918;7.092;2023-02-28T11:09:49;10.60;19.60
3699;DHT22;1865;50.918;7.092;2023-02-28T11:12:38;10.90;19.50
3699;DHT22;1865;50.918;7.092;2023-02-28T11:17:44;10.10;18.60
3699;DHT22;1865;50.918;7.092;2023-02-28T11:20:21;10.00;19.70
3699;DHT22;1865;50.918;7.092;2023-02-28T11:22:49;10.00;19.20
3699;DHT22;1865;50.918;7.092;2023-02-28T11:25:33;9.50;19.00
3699;DHT22;1865;50.918;7.092;2023-02-28T11:28:04;9.80;19.80
3699;DHT22;1865;50.918;7.092;2023-02-28T11:30:41;10.40;19.20
3699;DHT22;1865;50.918;7.092;2023-02-28T11:33:29;10.60;19.10
3699;DHT22;1865;50.918;7.092;2023-02-28T11:36:03;11.10;18.30
3699;DHT22;1865;50.918;7.092;2023-02-28T11:38:29;11.80;18.90
3699;DHT22;1865;50.918;7.092;2023-02-28T11:41:03;12.60;17.50
3699;DHT22;1865;50.918;7.092;2023-02-28T11:46:17;13.40;17.30
3699;DHT22;1865;50.918;7.092;2023-02-28T11:51:28;13.40;15.90
3699;DHT22;1865;50.918;7.092;2023-02-28T11:56:37;13.20;16.50
3699;DHT22;1865;50.918;7.092;2023-02-28T11:59:36;13.00;16.50
3699;DHT22;1865;50.918;7.092;2023-02-28T12:02:24;13.10;15.90
3699;DHT22;1865;50.918;7.092;2023-02-28T12:05:29;12.90;17.10
3699;DHT22;1865;50.918;7.092;2023-02-28T12:08:04;13.30;16.80
3699;DHT22;1865;50.918;7.092;2023-02-28T12:13:29;13.60;16.50
3699;DHT22;1865;50.918;7.092;2023-02-28T12:18:51;14.20;16.70
3699;DHT22;1865;50.918;7.092;2023-02-28T12:26:52;13.70;16.00
3699;DHT22;1865;50.918;7.092;2023-02-28T12:29:28;13.90;16.30
3699;DHT22;1865;50.918;7.092;2023-02-28T12:32:13;14.00;16.20
3699;DHT22;1865;50.918;7.092;2023-02-28T12:35:18;13.60;16.20
3699;DHT22;1865;50.918;7.092;2023-02-28T12:38:02;13.10;16.80
3699;DHT22;1865;50.918;7.092;2023-02-28T12:43:07;12.50;18.20
3699;DHT22;1865;50.918;7.092;2023-02-28T12:45:48;12.80;18.60
3699;DHT22;1865;50.918;7.092;2023-02-28T12:48:24;13.70;17.70
3699;DHT22;1865;50.918;7.092;2023-02-28T12:50:51;14.80;17.10
3699;DHT22;1865;50.918;7.092;2023-02-28T12:53:39;14.40;16.70
3699;DHT22;1865;50.918;7.092;2023-02-28T12:56:53;14.30;16.40
3699;DHT22;1865;50.918;7.092;2023-02-28T12:59:27;14.50;16.60
3699;DHT22;1865;50.918;7.092;2023-02-28T13:02:09;15.10;16.90
3699;DHT22;1865;50.918;7.092;2023-02-28T13:09:58;16.80;14.40
3699;DHT22;1865;50.918;7.092;2023-02-28T13:12:25;16.80;15.30
3699;DHT22;1865;50.918;7.092;2023-02-28T13:15:24;16.30;14.30
3699;DHT22;1865;50.918;7.092;2023-02-28T13:17:51;15.90;15.10
3699;DHT22;1865;50.918;7.092;2023-02-28T13:20:27;16.40;15.50
3699;DHT22;1865;50.918;7.092;2023-02-28T13:22:54;16.80;14.90
3699;DHT22;1865;50.918;7.092;2023-02-28T13:28:12;17.10;14.90
3699;DHT22;1865;50.918;7.092;2023-02-28T13:38:47;15.70;15.20
3699;DHT22;1865;50.918;7.092;2023-02-28T13:46:33;15.10;14.40
3699;DHT22;1865;50.918;7.092;2023-02-28T13:51:46;15.30;15.40
3699;DHT22;1865;50.918;7.092;2023-02-28T14:08:34;15.30;15.50
3699;DHT22;1865;50.918;7.092;2023-02-28T14:11:05;14.90;15.80
3699;DHT22;1865;50.918;7.092;2023-02-28T14:13:43;14.00;15.60
3699;DHT22;1865;50.918;7.092;2023-02-28T14:16:24;13.10;16.70
3699;DHT22;1865;50.918;7.092;2023-02-28T14:19:24;13.20;17.40
3699;DHT22;1865;50.918;7.092;2023-02-28T14:22:38;13.30;17.30
3699;DHT22;1865;50.918;7.092;2023-02-28T14:25:38;13.10;17.00
3699;DHT22;1865;50.918;7.092;2023-02-28T14:28:26;13.20;17.90
3699;DHT22;1865;50.918;7.092;2023-02-28T14:36:20;12.70;17.70
3699;DHT22;1865;50.918;7.092;2023-02-28T14:38:51;12.20;18.30
3699;DHT22;1865;50.918;7.092;2023-02-28T14:41:33;12.20;18.00
3699;DHT22;1865;50.918;7.092;2023-02-28T14:44:31;12.40;18.10
3699;DHT22;1865;50.918;7.092;2023-02-28T14:47:01;12.50;18.20
3699;DHT22;1865;50.918;7.092;2023-02-28T14:49:42;12.40;18.20
3699;DHT22;1865;50.918;7.092;2023-02-28T14:52:13;12.20;18.10
3699;DHT22;1865;50.918;7.092;2023-02-28T14:54:40;12.20;18.30
3699;DHT22;1865;50.918;7.092;2023-02-28T14:57:11;12.40;18.20
3699;DHT22;1865;50.918;7.092;2023-02-28T14:59:45;12.30;18.30
3699;DHT22;1865;50.918;7.092;2023-02-28T15:02:21;12.20;18.20
3699;DHT22;1865;50.918;7.092;2023-02-28T15:04:59;12.30;18.50
3699;DHT22;1865;50.918;7.092;2023-02-28T15:07:26;12.50;18.50
3699;DHT22;1865;50.918;7.092;2023-02-28T15:10:19;12.30;18.40
3699;DHT22;1865;50.918;7.092;2023-02-28T15:13:00;12.00;18.80
3699;DHT22;1865;50.918;7.092;2023-02-28T15:17:57;11.60;18.70
3699;DHT22;1865;50.918;7.092;2023-02-28T15:20:26;11.80;19.10
3699;DHT22;1865;50.918;7.092;2023-02-28T15:22:54;11.90;19.00
3699;DHT22;1865;50.918;7.092;2023-02-28T15:25:21;11.90;18.80
3699;DHT22;1865;50.918;7.092;2023-02-28T15:27:50;11.80;18.80
3699;DHT22;1865;50.918;7.092;2023-02-28T15:30:25;11.60;18.70
3699;DHT22;1865;50.918;7.092;2023-02-28T15:35:37;11.20;18.90
3699;DHT22;1865;50.918;7.092;2023-02-28T15:40:50;11.20;18.80
3699;DHT22;1865;50.918;7.092;2023-02-28T15:46:07;10.90;19.20
3699;DHT22;1865;50.918;7.092;2023-02-28T15:48:35;10.80;19.30
3699;DHT22;1865;50.918;7.092;2023-02-28T15:51:17;11.00;19.90
3699;DHT22;1865;50.918;7.092;2023-02-28T15:53:45;11.20;19.40
3699;DHT22;1865;50.918;7.092;2023-02-28T15:56:23;11.40;19.80
3699;DHT22;1865;50.918;7.092;2023-02-28T15:58:52;11.40;19.40
3699;DHT22;1865;50.918;7.092;2023-02-28T16:01:36;11.40;19.20
3699;DHT22;1865;50.918;7.092;2023-02-28T16:04:25;11.40;19.30
3699;DHT22;1865;50.918;7.092;2023-02-28T16:09:23;11.10;19.40
3699;DHT22;1865;50.918;7.092;2023-02-28T16:11:51;11.10;19.80
3699;DHT22;1865;50.918;7.092;2023-02-28T16:14:23;11.10;19.80
3699;DHT22;1865;50.918;7.092;2023-02-28T16:16:51;11.30;19.90
3699;DHT22;1865;50.918;7.092;2023-02-28T16:19:18;11.30;19.70
3699;DHT22;1865;50.918;7.092;2023-02-28T16:21:45;11.30;19.50
3699;DHT22;1865;50.918;7.092;2023-02-28T16:24:10;11.20;19.70
3699;DHT22;1865;50.918;7.092;2023-02-28T16:26:37;11.20;20.10
3699;DHT22;1865;50.918;7.092;2023-02-28T16:29:05;11.10;19.80
3699;DHT22;1865;50.918;7.092;2023-02-28T16:31:32;11.10;20.10
3699;DHT22;1865;50.918;7.092;2023-02-28T16:34:00;11.20;20.00
3699;DHT22;1865;50.918;7.092;2023-02-28T16:36:26;11.20;20.30
3699;DHT22;1865;50.918;7.092;2023-02-28T16:38:51;11.10;20.20
3699;DHT22;1865;50.918;7.092;2023-02-28T16:41:21;11.00;20.80
3699;DHT22;1865;50.918;7.092;2023-02-28T16:43:48;10.90;20.00
3699;DHT22;1865;50.918;7.092;2023-02-28T16:46:15;10.80;20.20
3699;DHT22;1865;50.918;7.092;2023-02-28T16:48:42;10.80;20.40
3699;DHT22;1865;50.918;7.092;2023-02-28T16:51:17;10.80;21.20
3699;DHT22;1865;50.918;7.092;2023-02-28T16:53:44;10.70;20.70
3699;DHT22;1865;50.918;7.092;2023-02-28T16:58:41;10.70;22.00
3699;DHT22;1865;50.918;7.092;2023-02-28T17:01:06;10.60;22.00
3699;DHT22;1865;50.918;7.092;2023-02-28T17:03:32;10.60;21.80
3699;DHT22;1865;50.918;7.092;2023-02-28T17:05:58;10.60;22.20
3699;DHT22;1865;50.918;7.092;2023-02-28T17:08:23;10.60;23.10
3699;DHT22;1865;50.918;7.092;2023-02-28T17:10:49;10.50;22.80
3699;DHT22;1865;50.918;7.092;2023-02-28T17:13:14;10.30;22.40
3699;DHT22;1865;50.918;7.092;2023-02-28T17:15:40;10.30;23.50
3699;DHT22;1865;50.918;7.092;2023-02-28T17:18:06;10.30;23.60
3699;DHT22;1865;50.918;7.092;2023-02-28T17:20:34;10.20;23.40
3699;DHT22;1865;50.918;7.092;2023-02-28T17:23:00;10.20;23.90
3699;DHT22;1865;50.918;7.092;2023-02-28T17:25:26;10.10;24.70
3699;DHT22;1865;50.918;7.092;2023-02-28T17:27:51;10.00;24.70
3699;DHT22;1865;50.918;7.092;2023-02-28T17:30:23;9.90;24.70
3699;DHT22;1865;50.918;7.092;2023-02-28T17:32:49;9.90;25.60
3699;DHT22;1865;50.918;7.092;2023-02-28T17:35:15;9.80;24.80
3699;DHT22;1865;50.918;7.092;2023-02-28T17:37:41;9.70;25.50
3699;DHT22;1865;50.918;7.092;2023-02-28T17:40:17;9.60;25.80
3699;DHT22;1865;50.918;7.092;2023-02-28T17:42:43;9.50;26.10
3699;DHT22;1865;50.918;7.092;2023-02-28T17:45:10;9.50;26.00
3699;DHT22;1865;50.918;7.092;2023-02-28T17:47:35;9.50;25.30
3699;DHT22;1865;50.918;7.092;2023-02-28T17:50:01;9.40;25.60
3699;DHT22;1865;50.918;7.092;2023-02-28T17:52:27;9.30;25.60
3699;DHT22;1865;50.918;7.092;2023-02-28T17:54:54;9.20;25.80
3699;DHT22;1865;50.918;7.092;2023-02-28T17:57:20;9.10;26.20
3699;DHT22;1865;50.918;7.092;2023-02-28T17:59:45;9.00;26.50
3699;DHT22;1865;50.918;7.092;2023-02-28T18:02:12;9.00;26.40
3699;DHT22;1865;50.918;7.092;2023-02-28T18:04:38;8.90;26.70
3699;DHT22;1865;50.918;7.092;2023-02-28T18:07:05;8.80;27.10
3699;DHT22;1865;50.918;7.092;2023-02-28T18:09:31;8.70;27.90
3699;DHT22;1865;50.918;7.092;2023-02-28T18:11:56;8.80;27.90
3699;DHT22;1865;50.918;7.092;2023-02-28T18:14:23;8.60;26.80
3699;DHT22;1865;50.918;7.092;2023-02-28T18:16:52;8.50;27.50
3699;DHT22;1865;50.918;7.092;2023-02-28T18:19:17;8.40;28.30
3699;DHT22;1865;50.918;7.092;2023-02-28T18:21:45;8.40;28.40
3699;DHT22;1865;50.918;7.092;2023-02-28T18:24:11;8.30;28.30
3699;DHT22;1865;50.918;7.092;2023-02-28T18:26:38;8.20;28.30
3699;DHT22;1865;50.918;7.092;2023-02-28T18:29:05;8.10;28.40
3699;DHT22;1865;50.918;7.092;2023-02-28T18:31:31;8.10;28.70
3699;DHT22;1865;50.918;7.092;2023-02-28T18:33:57;8.00;28.20
3699;DHT22;1865;50.918;7.092;2023-02-28T18:36:23;8.00;28.30